sensor_id;sensor_type;location;lat;lon;timestamp;P1;durP1;ratioP1;P2;durP2;ratioP2
24897;SDS011;12957;49.434;8.684;2023-09-18T00:00:13;2.83;;;2.47;;
24897;SDS011;12957;49.434;8.684;2023-09-18T00:02:39;3.17;;;2.70;;
24897;SDS011;12957;49.434;8.684;2023-09-18T00:05:04;2.90;;;2.70;;
24897;SDS011;12957;49.434;8.684;2023-09-18T00:07:30;2.60;;;2.40;;
24897;SDS011;12957;49.434;8.684;2023-09-18T00:09:55;3.42;;;2.30;;
24897;SDS011;12957;49.434;8.684;2023-09-18T00:12:21;2.60;;;2.40;;
24897;SDS011;12957;49.434;8.684;2023-09-18T00:14:50;3.10;;;2.35;;
24897;SDS011;12957;49.434;8.684;2023-09-18T00:17:15;5.80;;;2.45;;
24897;SDS011;12957;49.434;8.684;2023-09-18T00:19:42;4.63;;;2.78;;
24897;SDS011;12957;49.434;8.684;2023-09-18T00:22:08;6.90;;;2.83;;
24897;SDS011;12957;49.434;8.684;2023-09-18T00:24:33;7.13;;;2.78;;
24897;SDS011;12957;49.434;8.684;2023-09-18T00:26:59;4.05;;;2.60;;
24897;SDS011;12957;49.434;8.684;2023-09-18T00:29:24;3.17;;;2.50;;
24897;SDS011;12957;49.434;8.684;2023-09-18T00:31:50;4.30;;;2.78;;
24897;SDS011;12957;49.434;8.684;2023-09-18T00:34:15;4.28;;;2.47;;
24897;SDS011;12957;49.434;8.684;2023-09-18T00:36:41;5.15;;;2.42;;
24897;SDS011;12957;49.434;8.684;2023-09-18T00:39:06;6.68;;;2.60;;
24897;SDS011;12957;49.434;8.684;2023-09-18T00:41:32;3.33;;;2.40;;
24897;SDS011;12957;49.434;8.684;2023-09-18T00:43:57;3.17;;;2.85;;
24897;SDS011;12957;49.434;8.684;2023-09-18T00:46:23;2.67;;;2.45;;
24897;SDS011;12957;49.434;8.684;2023-09-18T00:48:52;6.50;;;2.55;;
24897;SDS011;12957;49.434;8.684;2023-09-18T00:51:18;2.50;;;2.30;;
24897;SDS011;12957;49.434;8.684;2023-09-18T00:53:43;2.22;;;2.13;;
24897;SDS011;12957;49.434;8.684;2023-09-18T00:56:10;2.65;;;2.45;;
24897;SDS011;12957;49.434;8.684;2023-09-18T00:58:36;3.50;;;2.70;;
24897;SDS011;12957;49.434;8.684;2023-09-18T01:01:02;4.47;;;2.40;;
24897;SDS011;12957;49.434;8.684;2023-09-18T01:03:28;4.05;;;2.38;;
24897;SDS011;12957;49.434;8.684;2023-09-18T01:05:54;2.83;;;2.55;;
24897;SDS011;12957;49.434;8.684;2023-09-18T01:08:20;2.47;;;2.28;;
24897;SDS011;12957;49.434;8.684;2023-09-18T01:16:25;2.67;;;2.47;;
24897;SDS011;12957;49.434;8.684;2023-09-18T01:18:55;2.80;;;2.60;;
24897;SDS011;12957;49.434;8.684;2023-09-18T01:21:20;4.78;;;2.60;;
24897;SDS011;12957;49.434;8.684;2023-09-18T01:23:46;2.72;;;2.53;;
24897;SDS011;12957;49.434;8.684;2023-09-18T01:26:12;4.63;;;2.42;;
24897;SDS011;12957;49.434;8.684;2023-09-18T01:28:37;2.63;;;2.22;;
24897;SDS011;12957;49.434;8.684;2023-09-18T01:31:03;4.45;;;2.55;;
24897;SDS011;12957;49.434;8.684;2023-09-18T01:33:28;2.80;;;2.50;;
24897;SDS011;12957;49.434;8.684;2023-09-18T01:35:54;2.85;;;2.50;;
24897;SDS011;12957;49.434;8.684;2023-09-18T01:38:21;4.65;;;2.40;;
24897;SDS011;12957;49.434;8.684;2023-09-18T01:40:48;3.28;;;2.72;;
24897;SDS011;12957;49.434;8.684;2023-09-18T01:43:13;3.22;;;2.70;;
24897;SDS011;12957;49.434;8.684;2023-09-18T01:45:39;4.05;;;2.60;;
24897;SDS011;12957;49.434;8.684;2023-09-18T01:48:05;3.20;;;2.70;;
24897;SDS011;12957;49.434;8.684;2023-09-18T01:50:31;5.13;;;2.40;;
24897;SDS011;12957;49.434;8.684;2023-09-18T01:52:58;4.82;;;2.40;;
24897;SDS011;12957;49.434;8.684;2023-09-18T01:55:24;6.80;;;2.40;;
24897;SDS011;12957;49.434;8.684;2023-09-18T01:57:49;3.35;;;2.53;;
24897;SDS011;12957;49.434;8.684;2023-09-18T02:00:15;5.72;;;2.58;;
24897;SDS011;12957;49.434;8.684;2023-09-18T02:02:40;7.70;;;3.30;;
24897;SDS011;12957;49.434;8.684;2023-09-18T02:05:06;8.50;;;3.47;;
24897;SDS011;12957;49.434;8.684;2023-09-18T02:07:32;8.30;;;3.60;;
24897;SDS011;12957;49.434;8.684;2023-09-18T02:09:57;9.75;;;3.78;;
24897;SDS011;12957;49.434;8.684;2023-09-18T02:12:23;14.55;;;4.38;;
24897;SDS011;12957;49.434;8.684;2023-09-18T02:14:48;9.80;;;3.97;;
24897;SDS011;12957;49.434;8.684;2023-09-18T02:17:13;8.57;;;3.72;;
24897;SDS011;12957;49.434;8.684;2023-09-18T02:19:39;5.88;;;3.90;;
24897;SDS011;12957;49.434;8.684;2023-09-18T02:22:04;8.68;;;4.57;;
24897;SDS011;12957;49.434;8.684;2023-09-18T02:24:30;10.63;;;4.60;;
24897;SDS011;12957;49.434;8.684;2023-09-18T02:26:55;12.60;;;4.40;;
24897;SDS011;12957;49.434;8.684;2023-09-18T02:29:22;7.28;;;4.65;;
24897;SDS011;12957;49.434;8.684;2023-09-18T02:31:48;5.88;;;4.30;;
24897;SDS011;12957;49.434;8.684;2023-09-18T02:34:13;8.20;;;4.43;;
24897;SDS011;12957;49.434;8.684;2023-09-18T02:36:38;9.80;;;3.78;;
24897;SDS011;12957;49.434;8.684;2023-09-18T02:39:04;9.93;;;4.38;;
24897;SDS011;12957;49.434;8.684;2023-09-18T02:41:29;5.85;;;3.53;;
24897;SDS011;12957;49.434;8.684;2023-09-18T02:43:55;5.13;;;3.78;;
24897;SDS011;12957;49.434;8.684;2023-09-18T02:46:20;8.43;;;3.70;;
24897;SDS011;12957;49.434;8.684;2023-09-18T02:48:46;7.38;;;3.80;;
24897;SDS011;12957;49.434;8.684;2023-09-18T02:51:11;10.43;;;4.47;;
24897;SDS011;12957;49.434;8.684;2023-09-18T02:53:37;12.35;;;3.92;;
24897;SDS011;12957;49.434;8.684;2023-09-18T02:56:02;7.78;;;4.03;;
24897;SDS011;12957;49.434;8.684;2023-09-18T02:58:28;8.90;;;3.70;;
24897;SDS011;12957;49.434;8.684;2023-09-18T03:00:56;5.78;;;3.95;;
24897;SDS011;12957;49.434;8.684;2023-09-18T03:03:25;5.88;;;3.67;;
24897;SDS011;12957;49.434;8.684;2023-09-18T03:05:50;5.15;;;3.67;;
24897;SDS011;12957;49.434;8.684;2023-09-18T03:08:16;7.45;;;4.13;;
24897;SDS011;12957;49.434;8.684;2023-09-18T03:10:42;7.65;;;3.95;;
24897;SDS011;12957;49.434;8.684;2023-09-18T03:13:08;10.23;;;3.88;;
24897;SDS011;12957;49.434;8.684;2023-09-18T03:15:35;8.48;;;3.90;;
24897;SDS011;12957;49.434;8.684;2023-09-18T03:18:01;7.05;;;3.47;;
24897;SDS011;12957;49.434;8.684;2023-09-18T03:20:27;6.32;;;3.40;;
24897;SDS011;12957;49.434;8.684;2023-09-18T03:22:57;4.65;;;3.05;;
24897;SDS011;12957;49.434;8.684;2023-09-18T03:25:23;7.68;;;3.20;;
24897;SDS011;12957;49.434;8.684;2023-09-18T03:27:50;6.55;;;3.20;;
24897;SDS011;12957;49.434;8.684;2023-09-18T03:30:17;5.07;;;2.67;;
24897;SDS011;12957;49.434;8.684;2023-09-18T03:32:43;8.90;;;2.92;;
24897;SDS011;12957;49.434;8.684;2023-09-18T03:35:09;8.45;;;3.70;;
24897;SDS011;12957;49.434;8.684;2023-09-18T03:37:42;8.00;;;3.42;;
24897;SDS011;12957;49.434;8.684;2023-09-18T03:40:08;9.95;;;3.20;;
24897;SDS011;12957;49.434;8.684;2023-09-18T03:42:34;6.13;;;3.15;;
24897;SDS011;12957;49.434;8.684;2023-09-18T03:45:00;5.32;;;3.10;;
24897;SDS011;12957;49.434;8.684;2023-09-18T03:47:25;11.18;;;3.83;;
24897;SDS011;12957;49.434;8.684;2023-09-18T03:49:51;8.95;;;3.63;;
24897;SDS011;12957;49.434;8.684;2023-09-18T03:52:16;5.78;;;3.47;;
24897;SDS011;12957;49.434;8.684;2023-09-18T03:54:42;6.97;;;3.20;;
24897;SDS011;12957;49.434;8.684;2023-09-18T03:57:07;10.73;;;3.25;;
24897;SDS011;12957;49.434;8.684;2023-09-18T03:59:33;9.30;;;3.63;;
24897;SDS011;12957;49.434;8.684;2023-09-18T04:01:58;12.70;;;3.92;;
24897;SDS011;12957;49.434;8.684;2023-09-18T04:04:23;5.85;;;3.50;;
24897;SDS011;12957;49.434;8.684;2023-09-18T04:06:49;9.70;;;3.92;;
24897;SDS011;12957;49.434;8.684;2023-09-18T04:09:15;8.63;;;3.45;;
24897;SDS011;12957;49.434;8.684;2023-09-18T04:11:40;11.88;;;3.78;;
24897;SDS011;12957;49.434;8.684;2023-09-18T04:14:06;14.02;;;4.30;;
24897;SDS011;12957;49.434;8.684;2023-09-18T04:16:31;15.02;;;3.80;;
24897;SDS011;12957;49.434;8.684;2023-09-18T04:19:00;13.57;;;3.90;;
24897;SDS011;12957;49.434;8.684;2023-09-18T04:21:26;13.60;;;4.38;;
24897;SDS011;12957;49.434;8.684;2023-09-18T04:23:51;12.35;;;3.90;;
24897;SDS011;12957;49.434;8.684;2023-09-18T04:26:22;14.57;;;4.95;;
24897;SDS011;12957;49.434;8.684;2023-09-18T04:28:54;13.85;;;4.60;;
24897;SDS011;12957;49.434;8.684;2023-09-18T04:31:20;13.98;;;5.25;;
24897;SDS011;12957;49.434;8.684;2023-09-18T04:33:46;10.73;;;5.25;;
24897;SDS011;12957;49.434;8.684;2023-09-18T04:36:11;19.85;;;4.65;;
24897;SDS011;12957;49.434;8.684;2023-09-18T04:38:37;13.65;;;4.82;;
24897;SDS011;12957;49.434;8.684;2023-09-18T04:41:02;19.35;;;4.10;;
24897;SDS011;12957;49.434;8.684;2023-09-18T04:43:28;12.25;;;4.22;;
24897;SDS011;12957;49.434;8.684;2023-09-18T04:45:56;17.00;;;4.78;;
24897;SDS011;12957;49.434;8.684;2023-09-18T04:48:22;12.27;;;3.97;;
24897;SDS011;12957;49.434;8.684;2023-09-18T04:50:48;10.02;;;3.58;;
24897;SDS011;12957;49.434;8.684;2023-09-18T04:53:14;9.18;;;3.17;;
24897;SDS011;12957;49.434;8.684;2023-09-18T04:55:39;12.27;;;4.13;;
24897;SDS011;12957;49.434;8.684;2023-09-18T04:58:05;8.60;;;3.75;;
24897;SDS011;12957;49.434;8.684;2023-09-18T05:00:31;15.30;;;3.95;;
24897;SDS011;12957;49.434;8.684;2023-09-18T05:02:58;14.10;;;3.45;;
24897;SDS011;12957;49.434;8.684;2023-09-18T05:05:26;11.95;;;4.55;;
24897;SDS011;12957;49.434;8.684;2023-09-18T05:07:52;15.02;;;4.38;;
24897;SDS011;12957;49.434;8.684;2023-09-18T05:10:17;18.23;;;3.70;;
24897;SDS011;12957;49.434;8.684;2023-09-18T05:12:43;13.85;;;3.83;;
24897;SDS011;12957;49.434;8.684;2023-09-18T05:15:08;11.10;;;3.90;;
24897;SDS011;12957;49.434;8.684;2023-09-18T05:17:45;10.18;;;4.03;;
24897;SDS011;12957;49.434;8.684;2023-09-18T05:20:12;8.05;;;3.90;;
24897;SDS011;12957;49.434;8.684;2023-09-18T05:22:39;11.93;;;4.03;;
24897;SDS011;12957;49.434;8.684;2023-09-18T05:25:05;11.32;;;3.95;;
24897;SDS011;12957;49.434;8.684;2023-09-18T05:27:31;17.13;;;4.03;;
24897;SDS011;12957;49.434;8.684;2023-09-18T05:29:57;17.52;;;4.38;;
24897;SDS011;12957;49.434;8.684;2023-09-18T05:32:23;7.05;;;3.40;;
24897;SDS011;12957;49.434;8.684;2023-09-18T05:34:48;12.60;;;3.22;;
24897;SDS011;12957;49.434;8.684;2023-09-18T05:37:14;17.98;;;3.42;;
24897;SDS011;12957;49.434;8.684;2023-09-18T05:39:39;10.13;;;3.83;;
24897;SDS011;12957;49.434;8.684;2023-09-18T05:42:05;9.45;;;3.03;;
24897;SDS011;12957;49.434;8.684;2023-09-18T05:44:30;8.02;;;2.70;;
24897;SDS011;12957;49.434;8.684;2023-09-18T05:46:56;11.25;;;3.50;;
24897;SDS011;12957;49.434;8.684;2023-09-18T05:49:21;10.18;;;3.03;;
24897;SDS011;12957;49.434;8.684;2023-09-18T05:51:47;14.70;;;3.60;;
24897;SDS011;12957;49.434;8.684;2023-09-18T05:54:13;5.68;;;3.28;;
24897;SDS011;12957;49.434;8.684;2023-09-18T05:56:39;10.68;;;2.78;;
24897;SDS011;12957;49.434;8.684;2023-09-18T05:59:04;6.00;;;2.70;;
24897;SDS011;12957;49.434;8.684;2023-09-18T06:01:30;9.45;;;2.70;;
24897;SDS011;12957;49.434;8.684;2023-09-18T06:03:57;7.57;;;2.88;;
24897;SDS011;12957;49.434;8.684;2023-09-18T06:06:23;12.30;;;3.00;;
24897;SDS011;12957;49.434;8.684;2023-09-18T06:08:50;7.93;;;3.15;;
24897;SDS011;12957;49.434;8.684;2023-09-18T06:11:20;8.48;;;3.13;;
24897;SDS011;12957;49.434;8.684;2023-09-18T06:13:45;11.30;;;3.13;;
24897;SDS011;12957;49.434;8.684;2023-09-18T06:16:11;10.70;;;3.10;;
24897;SDS011;12957;49.434;8.684;2023-09-18T06:18:36;5.97;;;2.95;;
24897;SDS011;12957;49.434;8.684;2023-09-18T06:21:03;9.63;;;2.65;;
24897;SDS011;12957;49.434;8.684;2023-09-18T06:23:29;7.70;;;2.75;;
24897;SDS011;12957;49.434;8.684;2023-09-18T06:25:55;10.73;;;3.10;;
24897;SDS011;12957;49.434;8.684;2023-09-18T06:28:22;11.98;;;3.10;;
24897;SDS011;12957;49.434;8.684;2023-09-18T06:30:47;7.53;;;2.50;;
24897;SDS011;12957;49.434;8.684;2023-09-18T06:33:13;11.02;;;2.70;;
24897;SDS011;12957;49.434;8.684;2023-09-18T06:35:39;6.10;;;2.42;;
24897;SDS011;12957;49.434;8.684;2023-09-18T06:38:04;12.68;;;3.20;;
24897;SDS011;12957;49.434;8.684;2023-09-18T06:40:31;10.63;;;3.72;;
24897;SDS011;12957;49.434;8.684;2023-09-18T06:43:00;17.80;;;4.35;;
24897;SDS011;12957;49.434;8.684;2023-09-18T06:45:25;9.73;;;3.50;;
24897;SDS011;12957;49.434;8.684;2023-09-18T06:47:51;13.20;;;3.60;;
24897;SDS011;12957;49.434;8.684;2023-09-18T06:50:18;9.60;;;3.25;;
24897;SDS011;12957;49.434;8.684;2023-09-18T06:52:43;11.25;;;3.38;;
24897;SDS011;12957;49.434;8.684;2023-09-18T06:55:09;11.23;;;3.22;;
24897;SDS011;12957;49.434;8.684;2023-09-18T06:57:34;12.23;;;3.58;;
24897;SDS011;12957;49.434;8.684;2023-09-18T07:00:00;12.30;;;3.70;;
24897;SDS011;12957;49.434;8.684;2023-09-18T07:02:25;14.18;;;3.53;;
24897;SDS011;12957;49.434;8.684;2023-09-18T07:04:52;12.60;;;3.42;;
24897;SDS011;12957;49.434;8.684;2023-09-18T07:07:17;10.40;;;3.17;;
24897;SDS011;12957;49.434;8.684;2023-09-18T07:09:50;8.13;;;2.60;;
24897;SDS011;12957;49.434;8.684;2023-09-18T07:12:18;13.30;;;3.03;;
24897;SDS011;12957;49.434;8.684;2023-09-18T07:14:47;10.43;;;3.33;;
24897;SDS011;12957;49.434;8.684;2023-09-18T07:17:13;7.35;;;2.63;;
24897;SDS011;12957;49.434;8.684;2023-09-18T07:19:38;7.80;;;2.90;;
24897;SDS011;12957;49.434;8.684;2023-09-18T07:22:04;8.63;;;3.05;;
24897;SDS011;12957;49.434;8.684;2023-09-18T07:24:29;7.22;;;3.00;;
24897;SDS011;12957;49.434;8.684;2023-09-18T07:26:55;12.45;;;3.67;;
24897;SDS011;12957;49.434;8.684;2023-09-18T07:29:22;9.43;;;3.42;;
24897;SDS011;12957;49.434;8.684;2023-09-18T07:31:50;10.35;;;3.35;;
24897;SDS011;12957;49.434;8.684;2023-09-18T07:34:15;8.98;;;2.60;;
24897;SDS011;12957;49.434;8.684;2023-09-18T07:36:42;10.70;;;3.05;;
24897;SDS011;12957;49.434;8.684;2023-09-18T07:39:09;12.50;;;3.20;;
24897;SDS011;12957;49.434;8.684;2023-09-18T07:41:34;8.85;;;2.80;;
24897;SDS011;12957;49.434;8.684;2023-09-18T07:44:00;11.77;;;2.67;;
24897;SDS011;12957;49.434;8.684;2023-09-18T07:46:25;17.02;;;2.97;;
24897;SDS011;12957;49.434;8.684;2023-09-18T07:48:51;6.90;;;2.63;;
24897;SDS011;12957;49.434;8.684;2023-09-18T07:51:16;8.95;;;2.83;;
24897;SDS011;12957;49.434;8.684;2023-09-18T07:53:42;9.88;;;2.53;;
24897;SDS011;12957;49.434;8.684;2023-09-18T07:56:08;7.35;;;2.70;;
24897;SDS011;12957;49.434;8.684;2023-09-18T07:58:34;6.95;;;2.97;;
24897;SDS011;12957;49.434;8.684;2023-09-18T08:01:03;11.63;;;2.50;;
24897;SDS011;12957;49.434;8.684;2023-09-18T08:03:30;13.93;;;2.78;;
24897;SDS011;12957;49.434;8.684;2023-09-18T08:05:55;4.65;;;2.33;;
24897;SDS011;12957;49.434;8.684;2023-09-18T08:08:22;8.52;;;2.45;;
24897;SDS011;12957;49.434;8.684;2023-09-18T08:10:49;8.27;;;2.65;;
24897;SDS011;12957;49.434;8.684;2023-09-18T08:13:15;4.55;;;2.17;;
24897;SDS011;12957;49.434;8.684;2023-09-18T08:15:41;8.18;;;2.70;;
24897;SDS011;12957;49.434;8.684;2023-09-18T08:18:06;5.03;;;1.92;;
24897;SDS011;12957;49.434;8.684;2023-09-18T08:20:32;3.08;;;2.10;;
24897;SDS011;12957;49.434;8.684;2023-09-18T08:22:58;5.90;;;2.10;;
24897;SDS011;12957;49.434;8.684;2023-09-18T08:25:26;6.35;;;1.83;;
24897;SDS011;12957;49.434;8.684;2023-09-18T08:27:52;3.90;;;1.65;;
24897;SDS011;12957;49.434;8.684;2023-09-18T08:30:17;5.20;;;1.90;;
24897;SDS011;12957;49.434;8.684;2023-09-18T08:32:46;6.35;;;1.98;;
24897;SDS011;12957;49.434;8.684;2023-09-18T08:35:12;2.28;;;1.58;;
24897;SDS011;12957;49.434;8.684;2023-09-18T08:37:37;4.35;;;1.70;;
24897;SDS011;12957;49.434;8.684;2023-09-18T08:40:03;3.75;;;1.50;;
24897;SDS011;12957;49.434;8.684;2023-09-18T08:42:35;2.40;;;1.38;;
24897;SDS011;12957;49.434;8.684;2023-09-18T08:45:01;1.65;;;1.40;;
24897;SDS011;12957;49.434;8.684;2023-09-18T08:47:28;6.57;;;1.55;;
24897;SDS011;12957;49.434;8.684;2023-09-18T08:49:54;4.85;;;1.55;;
24897;SDS011;12957;49.434;8.684;2023-09-18T08:52:21;4.53;;;1.65;;
24897;SDS011;12957;49.434;8.684;2023-09-18T08:54:47;6.97;;;1.75;;
24897;SDS011;12957;49.434;8.684;2023-09-18T08:57:13;4.10;;;1.67;;
24897;SDS011;12957;49.434;8.684;2023-09-18T08:59:39;4.40;;;1.52;;
24897;SDS011;12957;49.434;8.684;2023-09-18T09:02:05;3.85;;;1.50;;
24897;SDS011;12957;49.434;8.684;2023-09-18T09:04:31;4.70;;;1.80;;
24897;SDS011;12957;49.434;8.684;2023-09-18T09:06:56;5.65;;;1.67;;
24897;SDS011;12957;49.434;8.684;2023-09-18T09:09:24;4.50;;;1.90;;
24897;SDS011;12957;49.434;8.684;2023-09-18T09:11:51;3.63;;;1.50;;
24897;SDS011;12957;49.434;8.684;2023-09-18T09:14:17;4.38;;;1.52;;
24897;SDS011;12957;49.434;8.684;2023-09-18T09:16:47;4.82;;;1.92;;
24897;SDS011;12957;49.434;8.684;2023-09-18T09:19:15;4.93;;;1.83;;
24897;SDS011;12957;49.434;8.684;2023-09-18T09:21:43;6.13;;;1.58;;
24897;SDS011;12957;49.434;8.684;2023-09-18T09:24:10;6.50;;;1.70;;
24897;SDS011;12957;49.434;8.684;2023-09-18T09:26:42;7.10;;;1.58;;
24897;SDS011;12957;49.434;8.684;2023-09-18T09:29:20;3.22;;;1.33;;
24897;SDS011;12957;49.434;8.684;2023-09-18T09:31:46;5.05;;;1.30;;
24897;SDS011;12957;49.434;8.684;2023-09-18T09:34:12;4.10;;;1.30;;
24897;SDS011;12957;49.434;8.684;2023-09-18T09:36:56;3.15;;;1.70;;
24897;SDS011;12957;49.434;8.684;2023-09-18T09:39:22;4.68;;;1.38;;
24897;SDS011;12957;49.434;8.684;2023-09-18T09:41:53;2.70;;;1.50;;
24897;SDS011;12957;49.434;8.684;2023-09-18T09:44:19;8.18;;;2.63;;
24897;SDS011;12957;49.434;8.684;2023-09-18T09:46:49;4.93;;;1.52;;
24897;SDS011;12957;49.434;8.684;2023-09-18T09:49:16;1.65;;;1.27;;
24897;SDS011;12957;49.434;8.684;2023-09-18T09:51:42;6.13;;;1.45;;
24897;SDS011;12957;49.434;8.684;2023-09-18T09:54:08;1.63;;;1.20;;
24897;SDS011;12957;49.434;8.684;2023-09-18T09:56:41;5.25;;;1.60;;
24897;SDS011;12957;49.434;8.684;2023-09-18T09:59:10;3.28;;;1.40;;
24897;SDS011;12957;49.434;8.684;2023-09-18T10:01:37;4.32;;;1.25;;
24897;SDS011;12957;49.434;8.684;2023-09-18T10:04:09;5.97;;;1.58;;
24897;SDS011;12957;49.434;8.684;2023-09-18T10:06:37;3.63;;;1.42;;
24897;SDS011;12957;49.434;8.684;2023-09-18T10:09:03;6.28;;;1.50;;
24897;SDS011;12957;49.434;8.684;2023-09-18T10:11:31;4.57;;;1.60;;
24897;SDS011;12957;49.434;8.684;2023-09-18T10:14:06;6.00;;;1.70;;
24897;SDS011;12957;49.434;8.684;2023-09-18T10:16:36;8.30;;;1.90;;
24897;SDS011;12957;49.434;8.684;2023-09-18T10:22:17;4.18;;;1.50;;
24897;SDS011;12957;49.434;8.684;2023-09-18T10:24:50;4.40;;;1.50;;
24897;SDS011;12957;49.434;8.684;2023-09-18T10:27:20;4.32;;;1.42;;
24897;SDS011;12957;49.434;8.684;2023-09-18T10:29:47;5.63;;;1.77;;
24897;SDS011;12957;49.434;8.684;2023-09-18T10:32:14;6.60;;;1.63;;
24897;SDS011;12957;49.434;8.684;2023-09-18T10:34:40;3.17;;;1.48;;
24897;SDS011;12957;49.434;8.684;2023-09-18T10:37:06;3.28;;;1.27;;
24897;SDS011;12957;49.434;8.684;2023-09-18T10:39:37;3.45;;;1.30;;
24897;SDS011;12957;49.434;8.684;2023-09-18T10:42:04;3.28;;;1.65;;
24897;SDS011;12957;49.434;8.684;2023-09-18T10:44:32;8.70;;;2.05;;
24897;SDS011;12957;49.434;8.684;2023-09-18T10:46:58;7.40;;;1.50;;
24897;SDS011;12957;49.434;8.684;2023-09-18T10:49:25;6.47;;;1.80;;
24897;SDS011;12957;49.434;8.684;2023-09-18T10:51:53;5.00;;;1.20;;
24897;SDS011;12957;49.434;8.684;2023-09-18T10:54:20;2.75;;;1.50;;
24897;SDS011;12957;49.434;8.684;2023-09-18T10:56:46;3.35;;;1.65;;
24897;SDS011;12957;49.434;8.684;2023-09-18T10:59:13;3.95;;;1.38;;
24897;SDS011;12957;49.434;8.684;2023-09-18T11:01:39;2.20;;;1.40;;
24897;SDS011;12957;49.434;8.684;2023-09-18T11:04:05;3.30;;;1.60;;
24897;SDS011;12957;49.434;8.684;2023-09-18T11:09:26;2.05;;;1.10;;
24897;SDS011;12957;49.434;8.684;2023-09-18T11:11:53;3.88;;;1.70;;
24897;SDS011;12957;49.434;8.684;2023-09-18T11:14:22;4.15;;;1.70;;
24897;SDS011;12957;49.434;8.684;2023-09-18T11:17:33;7.35;;;1.80;;
24897;SDS011;12957;49.434;8.684;2023-09-18T11:22:40;2.28;;;1.23;;
24897;SDS011;12957;49.434;8.684;2023-09-18T11:28:22;5.75;;;1.35;;
24897;SDS011;12957;49.434;8.684;2023-09-18T11:30:50;3.88;;;1.70;;
24897;SDS011;12957;49.434;8.684;2023-09-18T11:33:29;4.07;;;1.63;;
24897;SDS011;12957;49.434;8.684;2023-09-18T11:35:55;4.75;;;1.65;;
24897;SDS011;12957;49.434;8.684;2023-09-18T11:38:21;3.10;;;1.60;;
24897;SDS011;12957;49.434;8.684;2023-09-18T11:40:48;4.18;;;1.38;;
24897;SDS011;12957;49.434;8.684;2023-09-18T11:43:27;3.55;;;1.50;;
24897;SDS011;12957;49.434;8.684;2023-09-18T11:45:59;7.63;;;1.83;;
24897;SDS011;12957;49.434;8.684;2023-09-18T11:48:28;5.35;;;1.75;;
24897;SDS011;12957;49.434;8.684;2023-09-18T11:50:58;7.47;;;1.35;;
24897;SDS011;12957;49.434;8.684;2023-09-18T11:53:24;6.22;;;1.45;;
24897;SDS011;12957;49.434;8.684;2023-09-18T11:55:52;6.80;;;1.88;;
24897;SDS011;12957;49.434;8.684;2023-09-18T11:58:17;7.13;;;2.45;;
24897;SDS011;12957;49.434;8.684;2023-09-18T12:00:48;5.13;;;1.70;;
24897;SDS011;12957;49.434;8.684;2023-09-18T12:03:15;3.25;;;1.35;;
24897;SDS011;12957;49.434;8.684;2023-09-18T12:05:57;3.28;;;1.67;;
24897;SDS011;12957;49.434;8.684;2023-09-18T12:08:23;2.95;;;1.30;;
24897;SDS011;12957;49.434;8.684;2023-09-18T12:10:53;4.85;;;1.20;;
24897;SDS011;12957;49.434;8.684;2023-09-18T12:13:19;5.13;;;1.17;;
24897;SDS011;12957;49.434;8.684;2023-09-18T12:15:44;3.47;;;1.23;;
24897;SDS011;12957;49.434;8.684;2023-09-18T12:18:10;4.18;;;1.38;;
24897;SDS011;12957;49.434;8.684;2023-09-18T12:20:49;5.18;;;1.70;;
24897;SDS011;12957;49.434;8.684;2023-09-18T12:23:15;2.08;;;1.38;;
24897;SDS011;12957;49.434;8.684;2023-09-18T12:25:41;4.22;;;1.42;;
24897;SDS011;12957;49.434;8.684;2023-09-18T12:28:07;3.67;;;1.30;;
24897;SDS011;12957;49.434;8.684;2023-09-18T12:30:33;1.85;;;1.10;;
24897;SDS011;12957;49.434;8.684;2023-09-18T12:32:59;2.75;;;1.10;;
24897;SDS011;12957;49.434;8.684;2023-09-18T12:35:25;1.65;;;1.30;;
24897;SDS011;12957;49.434;8.684;2023-09-18T12:37:54;1.27;;;1.17;;
24897;SDS011;12957;49.434;8.684;2023-09-18T12:40:24;1.65;;;1.10;;
24897;SDS011;12957;49.434;8.684;2023-09-18T12:42:51;2.10;;;1.33;;
24897;SDS011;12957;49.434;8.684;2023-09-18T12:45:19;4.70;;;1.38;;
24897;SDS011;12957;49.434;8.684;2023-09-18T12:47:45;1.70;;;1.15;;
24897;SDS011;12957;49.434;8.684;2023-09-18T12:50:14;7.03;;;1.30;;
24897;SDS011;12957;49.434;8.684;2023-09-18T12:52:40;2.85;;;1.35;;
24897;SDS011;12957;49.434;8.684;2023-09-18T12:55:06;3.28;;;1.50;;
24897;SDS011;12957;49.434;8.684;2023-09-18T12:57:35;5.80;;;1.30;;
24897;SDS011;12957;49.434;8.684;2023-09-18T13:00:07;2.55;;;1.30;;
24897;SDS011;12957;49.434;8.684;2023-09-18T13:02:36;3.17;;;1.40;;
24897;SDS011;12957;49.434;8.684;2023-09-18T13:05:03;4.82;;;1.35;;
24897;SDS011;12957;49.434;8.684;2023-09-18T13:07:29;3.25;;;1.27;;
24897;SDS011;12957;49.434;8.684;2023-09-18T13:09:58;2.75;;;1.10;;
24897;SDS011;12957;49.434;8.684;2023-09-18T13:15:06;3.00;;;1.67;;
24897;SDS011;12957;49.434;8.684;2023-09-18T13:20:21;2.95;;;1.20;;
24897;SDS011;12957;49.434;8.684;2023-09-18T13:22:53;4.47;;;1.42;;
24897;SDS011;12957;49.434;8.684;2023-09-18T13:25:23;5.57;;;1.20;;
24897;SDS011;12957;49.434;8.684;2023-09-18T13:27:55;6.57;;;1.92;;
24897;SDS011;12957;49.434;8.684;2023-09-18T13:30:21;3.13;;;1.30;;
24897;SDS011;12957;49.434;8.684;2023-09-18T13:32:48;2.50;;;1.08;;
24897;SDS011;12957;49.434;8.684;2023-09-18T13:35:17;2.05;;;1.10;;
24897;SDS011;12957;49.434;8.684;2023-09-18T13:37:43;4.80;;;1.42;;
24897;SDS011;12957;49.434;8.684;2023-09-18T13:40:09;5.93;;;1.42;;
24897;SDS011;12957;49.434;8.684;2023-09-18T13:42:35;4.65;;;1.20;;
24897;SDS011;12957;49.434;8.684;2023-09-18T13:45:02;7.82;;;1.60;;
24897;SDS011;12957;49.434;8.684;2023-09-18T13:47:31;3.90;;;1.85;;
24897;SDS011;12957;49.434;8.684;2023-09-18T13:49:57;3.65;;;1.40;;
24897;SDS011;12957;49.434;8.684;2023-09-18T13:52:25;2.95;;;1.23;;
24897;SDS011;12957;49.434;8.684;2023-09-18T13:54:54;3.90;;;1.20;;
24897;SDS011;12957;49.434;8.684;2023-09-18T13:57:19;4.60;;;1.63;;
24897;SDS011;12957;49.434;8.684;2023-09-18T13:59:45;5.05;;;1.40;;
24897;SDS011;12957;49.434;8.684;2023-09-18T14:02:12;3.22;;;1.30;;
24897;SDS011;12957;49.434;8.684;2023-09-18T14:04:37;3.55;;;1.27;;
24897;SDS011;12957;49.434;8.684;2023-09-18T14:07:03;3.80;;;1.33;;
24897;SDS011;12957;49.434;8.684;2023-09-18T14:09:29;4.07;;;1.40;;
24897;SDS011;12957;49.434;8.684;2023-09-18T14:11:55;3.45;;;1.20;;
24897;SDS011;12957;49.434;8.684;2023-09-18T14:14:24;6.38;;;1.30;;
24897;SDS011;12957;49.434;8.684;2023-09-18T14:16:50;5.97;;;1.58;;
24897;SDS011;12957;49.434;8.684;2023-09-18T14:19:16;3.10;;;1.50;;
24897;SDS011;12957;49.434;8.684;2023-09-18T14:21:41;9.02;;;1.88;;
24897;SDS011;12957;49.434;8.684;2023-09-18T14:24:08;4.07;;;1.92;;
24897;SDS011;12957;49.434;8.684;2023-09-18T14:26:33;2.58;;;1.40;;
24897;SDS011;12957;49.434;8.684;2023-09-18T14:29:05;8.02;;;1.23;;
24897;SDS011;12957;49.434;8.684;2023-09-18T14:31:34;4.32;;;1.70;;
24897;SDS011;12957;49.434;8.684;2023-09-18T14:34:01;4.63;;;1.42;;
24897;SDS011;12957;49.434;8.684;2023-09-18T14:36:26;2.30;;;1.65;;
24897;SDS011;12957;49.434;8.684;2023-09-18T14:38:52;3.55;;;1.50;;
24897;SDS011;12957;49.434;8.684;2023-09-18T14:41:18;2.60;;;1.52;;
24897;SDS011;12957;49.434;8.684;2023-09-18T14:43:46;4.18;;;1.80;;
24897;SDS011;12957;49.434;8.684;2023-09-18T14:46:11;3.67;;;1.58;;
24897;SDS011;12957;49.434;8.684;2023-09-18T14:48:37;4.45;;;1.63;;
24897;SDS011;12957;49.434;8.684;2023-09-18T14:51:02;1.88;;;1.27;;
24897;SDS011;12957;49.434;8.684;2023-09-18T14:53:29;1.42;;;1.30;;
24897;SDS011;12957;49.434;8.684;2023-09-18T14:55:54;4.45;;;1.48;;
24897;SDS011;12957;49.434;8.684;2023-09-18T14:58:20;3.70;;;1.50;;
24897;SDS011;12957;49.434;8.684;2023-09-18T15:00:48;3.60;;;1.38;;
24897;SDS011;12957;49.434;8.684;2023-09-18T15:03:14;2.95;;;1.65;;
24897;SDS011;12957;49.434;8.684;2023-09-18T15:05:40;5.30;;;1.55;;